createdAt,value
2023-02-24T00:02:15.987Z,26.07
2023-02-24T00:05:19.628Z,26.06
2023-02-24T00:08:23.520Z,26.08
2023-02-24T00:11:26.828Z,26.03
2023-02-24T00:14:33.346Z,25.78
2023-02-24T00:17:36.539Z,25.45
2023-02-24T00:20:39.722Z,25.29
2023-02-24T00:23:44.954Z,25.12
2023-02-24T00:26:53.620Z,25.06
2023-02-24T00:29:56.830Z,24.77
2023-02-24T00:33:01.640Z,24.54
2023-02-24T00:36:12.186Z,24.57
2023-02-24T00:39:15.394Z,24.51
2023-02-24T00:42:18.879Z,24.47
2023-02-24T00:45:22.050Z,24.38
2023-02-24T00:48:25.244Z,24.30
2023-02-24T00:51:28.500Z,24.22
2023-02-24T00:54:31.842Z,24.21
2023-02-24T00:57:35.067Z,24.16
2023-02-24T01:00:38.444Z,24.06
2023-02-24T01:03:42.359Z,23.86
2023-02-24T01:06:51.789Z,23.67
2023-02-24T01:09:55.061Z,23.72
2023-02-24T01:12:58.260Z,23.60
2023-02-24T01:16:01.371Z,23.70
2023-02-24T01:19:05.572Z,23.66
2023-02-24T01:22:09.655Z,23.53
2023-02-24T01:25:13.225Z,23.50
2023-02-24T01:28:16.482Z,23.39
2023-02-24T01:31:21.299Z,23.37
2023-02-24T01:34:28.987Z,23.37
2023-02-24T01:37:32.282Z,23.33
2023-02-24T01:40:38.449Z,23.24
2023-02-24T01:43:59.986Z,23.18
2023-02-24T01:47:05.467Z,23.19
2023-02-24T01:50:09.551Z,23.24
2023-02-24T01:53:13.299Z,23.17
2023-02-24T01:56:17.413Z,23.02
2023-02-24T01:59:22.493Z,22.89
2023-02-24T02:02:26.068Z,22.89
2023-02-24T02:05:29.386Z,22.81
2023-02-24T02:08:33.501Z,22.50
2023-02-24T02:11:36.825Z,22.65
2023-02-24T02:14:43.859Z,22.69
2023-02-24T02:18:04.900Z,22.76
2023-02-24T02:21:42.091Z,22.50
2023-02-24T02:24:58.074Z,22.33
2023-02-24T02:28:21.732Z,22.34
2023-02-24T02:31:27.403Z,22.32
2023-02-24T02:34:48.913Z,22.23
2023-02-24T02:37:56.778Z,22.20
2023-02-24T02:41:38.971Z,22.24
2023-02-24T02:44:47.958Z,22.21
2023-02-24T02:48:27.712Z,21.73
2023-02-24T02:51:38.964Z,21.76
2023-02-24T02:54:50.512Z,21.78
2023-02-24T02:57:57.989Z,21.97
2023-02-24T03:01:02.976Z,22.04
2023-02-24T03:04:09.735Z,21.90
2023-02-24T03:07:14.627Z,21.87
2023-02-24T03:10:26.971Z,21.96
2023-02-24T03:13:34.866Z,22.02
2023-02-24T03:16:38.211Z,22.06
2023-02-24T03:19:44.924Z,22.12
2023-02-24T03:22:56.165Z,22.06
2023-02-24T03:26:04.395Z,21.87
2023-02-24T03:29:20.454Z,21.94
2023-02-24T03:32:33.197Z,21.94
2023-02-24T03:35:41.607Z,21.97
2023-02-24T03:38:44.908Z,22.01
2023-02-24T03:42:05.705Z,22.13
2023-02-24T03:45:11.677Z,22.00
2023-02-24T03:48:15.480Z,22.01
2023-02-24T03:51:20.038Z,22.02
2023-02-24T03:54:38.285Z,22.09
2023-02-24T03:57:59.391Z,21.88
2023-02-24T04:01:16.315Z,22.04
2023-02-24T04:04:36.102Z,22.09
2023-02-24T04:07:46.821Z,22.18
2023-02-24T04:11:15.384Z,22.13
2023-02-24T04:14:36.444Z,22.09
2023-02-24T04:17:46.869Z,22.02
2023-02-24T04:20:51.389Z,22.06
2023-02-24T04:23:56.078Z,22.05
2023-02-24T04:27:03.194Z,22.05
2023-02-24T04:30:06.980Z,22.17
2023-02-24T04:33:10.376Z,22.10
2023-02-24T04:36:14.252Z,22.11
2023-02-24T04:39:21.352Z,22.10
2023-02-24T04:42:24.665Z,22.02
2023-02-24T04:45:31.918Z,21.96
2023-02-24T04:48:36.147Z,21.98
2023-02-24T04:51:40.068Z,21.99
2023-02-24T04:54:43.184Z,21.87
2023-02-24T04:57:46.586Z,21.76
2023-02-24T05:00:51.936Z,21.85
2023-02-24T05:03:55.522Z,21.75
2023-02-24T05:06:58.785Z,21.82
2023-02-24T05:10:01.949Z,21.88
2023-02-24T05:13:07.011Z,22.02
2023-02-24T05:16:15.091Z,21.85
2023-02-24T05:19:23.510Z,21.58
2023-02-24T05:22:26.794Z,21.79
2023-02-24T05:25:30.231Z,21.63
2023-02-24T05:28:33.424Z,21.65
2023-02-24T05:31:37.211Z,21.65
2023-02-24T05:34:40.532Z,21.65
2023-02-24T05:37:43.916Z,21.75
2023-02-24T05:40:49.744Z,21.83
2023-02-24T05:43:56.003Z,21.85
2023-02-24T05:46:59.767Z,21.86
2023-02-24T05:50:05.587Z,21.97
2023-02-24T05:53:08.774Z,21.99
2023-02-24T05:56:17.506Z,22.01
2023-02-24T05:59:20.743Z,22.02
2023-02-24T06:02:24.853Z,21.94
2023-02-24T06:05:28.004Z,22.01
2023-02-24T06:08:31.152Z,22.09
2023-02-24T06:11:35.716Z,22.15
2023-02-24T06:14:41.299Z,22.03
2023-02-24T06:17:44.490Z,21.89
2023-02-24T06:20:47.928Z,21.81
2023-02-24T06:23:51.297Z,21.99
2023-02-24T06:26:54.572Z,22.07
2023-02-24T06:29:58.088Z,22.17
2023-02-24T06:33:01.296Z,22.19
2023-02-24T06:36:05.621Z,22.28
2023-02-24T06:39:08.871Z,22.33
2023-02-24T06:42:13.158Z,22.32
2023-02-24T06:45:17.428Z,22.34
2023-02-24T06:48:20.684Z,22.37
2023-02-24T06:51:24.043Z,22.37
2023-02-24T06:54:29.267Z,22.43
2023-02-24T06:57:33.333Z,22.49
2023-02-24T07:00:36.481Z,22.42
2023-02-24T07:03:40.002Z,22.39
2023-02-24T07:06:48.422Z,22.39
2023-02-24T07:09:51.634Z,22.43
2023-02-24T07:12:54.834Z,22.30
2023-02-24T07:16:01.181Z,22.32
2023-02-24T07:19:06.732Z,22.25
2023-02-24T07:22:10.592Z,22.24
2023-02-24T07:25:13.772Z,22.32
2023-02-24T07:28:18.253Z,22.37
2023-02-24T07:31:23.604Z,22.38
2023-02-24T07:34:27.207Z,22.41
2023-02-24T07:37:30.361Z,22.35
2023-02-24T07:40:34.271Z,22.19
2023-02-24T07:43:42.168Z,22.18
2023-02-24T07:46:45.479Z,22.24
2023-02-24T07:49:50.622Z,22.57
2023-02-24T07:52:53.903Z,22.59
2023-02-24T07:55:57.135Z,22.52
2023-02-24T07:59:03.373Z,22.39
2023-02-24T08:02:06.824Z,22.54
2023-02-24T08:05:10.493Z,22.73
2023-02-24T08:08:13.694Z,22.58
2023-02-24T08:11:18.268Z,22.48
2023-02-24T08:14:27.201Z,22.41
2023-02-24T08:17:31.560Z,22.44
2023-02-24T08:20:34.890Z,22.44
2023-02-24T08:23:38.117Z,22.38
2023-02-24T08:26:41.336Z,22.36
2023-02-24T08:29:46.867Z,22.37
2023-02-24T08:32:54.042Z,22.42
2023-02-24T08:35:57.252Z,22.52
2023-02-24T08:39:00.648Z,22.39
2023-02-24T08:42:04.246Z,22.33
2023-02-24T08:45:07.908Z,22.31
2023-02-24T08:48:16.008Z,22.42
2023-02-24T08:51:32.188Z,22.48
2023-02-24T08:54:35.496Z,22.45
2023-02-24T08:57:38.751Z,22.35
2023-02-24T09:00:42.034Z,22.30
2023-02-24T09:03:47.395Z,22.25
2023-02-24T09:06:55.650Z,22.23
2023-02-24T09:10:00.968Z,22.24
2023-02-24T09:13:04.202Z,22.25
2023-02-24T09:16:07.809Z,22.24
2023-02-24T09:19:11.847Z,22.24
2023-02-24T09:22:21.656Z,22.25
2023-02-24T09:25:26.458Z,22.31
2023-02-24T09:28:29.715Z,22.31
2023-02-24T09:31:36.767Z,22.36
2023-02-24T09:34:42.145Z,22.37
2023-02-24T09:37:45.377Z,22.33
2023-02-24T09:40:50.045Z,22.27
2023-02-24T09:43:55.556Z,22.30
2023-02-24T09:47:15.099Z,22.23
2023-02-24T09:50:46.868Z,22.16
2023-02-24T09:53:44.580Z,22.32
2023-02-24T09:57:02.824Z,22.26
2023-02-24T10:00:10.301Z,22.28
2023-02-24T10:03:24.336Z,22.33
2023-02-24T10:06:29.611Z,22.48
2023-02-24T10:09:50.904Z,22.50
2023-02-24T10:12:56.892Z,22.40
2023-02-24T10:16:09.774Z,22.36
2023-02-24T10:19:23.852Z,20.99
2023-02-24T10:23:05.136Z,20.02
2023-02-24T10:26:22.430Z,19.55
2023-02-24T10:29:25.635Z,19.44
2023-02-24T10:32:54.662Z,19.30
2023-02-24T10:36:12.679Z,19.04
2023-02-24T10:39:17.439Z,18.82
2023-02-24T10:42:40.911Z,18.64
2023-02-24T10:45:45.494Z,18.45
2023-02-24T10:48:57.874Z,18.25
2023-02-24T10:52:01.086Z,18.32
2023-02-24T10:55:39.429Z,18.14
2023-02-24T10:58:45.593Z,18.07
2023-02-24T11:02:03.378Z,17.92
2023-02-24T11:05:09.609Z,17.84
2023-02-24T11:08:18.817Z,17.73
2023-02-24T11:11:30.608Z,17.71
2023-02-24T11:14:48.033Z,17.97
2023-02-24T11:17:57.064Z,17.43
2023-02-24T11:21:12.117Z,17.40
2023-02-24T11:24:19.339Z,17.49
2023-02-24T11:27:24.406Z,17.33
2023-02-24T11:30:51.289Z,17.27
2023-02-24T11:34:25.126Z,17.23
2023-02-24T11:37:43.167Z,16.91
2023-02-24T11:40:50.222Z,17.09
2023-02-24T11:44:05.536Z,17.16
2023-02-24T11:47:15.085Z,17.15
2023-02-24T11:50:32.312Z,17.27
2023-02-24T11:53:50.487Z,16.85
2023-02-24T11:56:59.942Z,16.79
2023-02-24T12:00:08.327Z,17.04
2023-02-24T12:03:37.918Z,17.02
2023-02-24T12:06:52.643Z,16.86
2023-02-24T12:10:15.499Z,16.81
2023-02-24T12:13:30.353Z,16.75
2023-02-24T12:16:40.014Z,16.94
2023-02-24T12:20:21.414Z,16.90
2023-02-24T12:23:34.587Z,16.83
2023-02-24T12:26:59.824Z,16.64
2023-02-24T12:30:30.323Z,16.82
2023-02-24T12:33:44.997Z,16.80
2023-02-24T12:37:16.684Z,17.05
2023-02-24T12:40:29.480Z,17.00
2023-02-24T12:43:42.802Z,17.01
2023-02-24T12:46:47.244Z,16.92
2023-02-24T12:50:10.966Z,16.97
2023-02-24T12:53:41.413Z,17.16
2023-02-24T12:57:03.654Z,16.96
2023-02-24T13:00:34.076Z,16.90
2023-02-24T13:03:55.959Z,16.86
2023-02-24T13:07:20.435Z,16.68
2023-02-24T13:11:01.396Z,16.94
2023-02-24T13:14:31.608Z,16.79
2023-02-24T13:17:34.857Z,16.63
2023-02-24T13:20:39.471Z,16.80
2023-02-24T13:23:52.397Z,16.88
2023-02-24T13:27:20.494Z,16.83
2023-02-24T13:30:41.772Z,16.99
2023-02-24T13:33:45.618Z,16.97
2023-02-24T13:36:50.600Z,17.12
2023-02-24T13:39:53.821Z,17.22
2023-02-24T13:42:56.941Z,17.31
2023-02-24T13:46:03.370Z,17.16
2023-02-24T13:49:34.260Z,17.16
2023-02-24T13:52:59.193Z,17.15
2023-02-24T13:56:42.725Z,17.22
2023-02-24T14:00:10.206Z,17.53
2023-02-24T14:03:25.684Z,17.26
2023-02-24T14:06:29.107Z,17.42
2023-02-24T14:09:36.094Z,17.48
2023-02-24T14:12:38.902Z,17.57
2023-02-24T14:15:44.887Z,17.85
2023-02-24T14:18:59.888Z,17.92
2023-02-24T14:22:03.068Z,17.80
2023-02-24T14:25:07.328Z,17.85
2023-02-24T14:28:22.613Z,17.88
2023-02-24T14:31:26.355Z,17.84
2023-02-24T14:34:31.795Z,17.39
2023-02-24T14:37:42.854Z,17.68
2023-02-24T14:40:49.842Z,18.18
2023-02-24T14:43:53.545Z,17.94
2023-02-24T14:46:59.073Z,18.03
2023-02-24T14:50:04.410Z,18.09
2023-02-24T14:53:13.217Z,18.12
2023-02-24T14:56:17.079Z,17.97
2023-02-24T14:59:29.333Z,18.25
2023-02-24T15:02:34.060Z,18.17
2023-02-24T15:05:44.776Z,18.42
2023-02-24T15:08:54.042Z,18.45
2023-02-24T15:11:57.261Z,18.48
2023-02-24T15:15:06.552Z,18.47
2023-02-24T15:18:37.987Z,18.40
2023-02-24T15:21:42.017Z,18.35
2023-02-24T15:24:45.585Z,18.35
2023-02-24T15:28:03.033Z,18.27
2023-02-24T15:31:11.233Z,18.15
2023-02-24T15:34:19.374Z,18.25
2023-02-24T15:37:47.221Z,18.40
2023-02-24T15:40:55.078Z,18.55
2023-02-24T15:44:00.657Z,18.76
2023-02-24T15:47:23.919Z,18.24
2023-02-24T15:50:27.976Z,18.36
2023-02-24T15:53:31.290Z,18.63
2023-02-24T15:56:35.703Z,18.70
2023-02-24T15:59:38.955Z,18.92
2023-02-24T16:02:42.573Z,19.37
2023-02-24T16:05:45.915Z,19.45
2023-02-24T16:08:50.381Z,19.56
2023-02-24T16:11:53.885Z,19.84
2023-02-24T16:14:57.250Z,19.76
2023-02-24T16:18:01.625Z,19.61
2023-02-24T16:21:04.967Z,19.76
2023-02-24T16:24:08.273Z,19.82
2023-02-24T16:27:17.746Z,19.88
2023-02-24T16:30:22.727Z,20.00
2023-02-24T16:33:27.050Z,20.18
2023-02-24T16:36:30.542Z,20.09
2023-02-24T16:39:33.867Z,19.81
2023-02-24T16:42:38.306Z,19.46
2023-02-24T16:45:42.827Z,19.53
2023-02-24T16:48:47.844Z,19.62
2023-02-24T16:51:51.098Z,20.03
2023-02-24T16:54:56.881Z,20.11
2023-02-24T16:58:00.176Z,20.01
2023-02-24T17:01:05.198Z,20.24
2023-02-24T17:04:08.564Z,20.31
2023-02-24T17:07:11.900Z,19.97
2023-02-24T17:10:16.873Z,20.24
2023-02-24T17:13:22.320Z,20.36
2023-02-24T17:16:26.046Z,20.52
2023-02-24T17:19:29.404Z,20.48
2023-02-24T17:22:32.823Z,20.43
2023-02-24T17:25:36.162Z,20.60
2023-02-24T17:28:39.335Z,21.04
2023-02-24T17:31:44.696Z,21.42
2023-02-24T17:34:47.969Z,21.67
2023-02-24T17:37:51.253Z,21.64
2023-02-24T17:40:54.785Z,21.56
2023-02-24T17:43:57.944Z,21.42
2023-02-24T17:47:01.147Z,21.38
2023-02-24T17:50:05.383Z,21.63
2023-02-24T17:53:09.038Z,21.67
2023-02-24T17:56:12.500Z,22.23
2023-02-24T17:59:15.787Z,22.30
2023-02-24T18:02:21.538Z,21.78
2023-02-24T18:05:24.818Z,21.71
2023-02-24T18:08:28.287Z,21.52
2023-02-24T18:11:31.708Z,21.86
2023-02-24T18:14:35.065Z,22.10
2023-02-24T18:17:39.459Z,21.65
2023-02-24T18:20:44.126Z,22.66
2023-02-24T18:23:47.363Z,23.21
2023-02-24T18:26:50.839Z,23.58
2023-02-24T18:29:54.963Z,23.17
2023-02-24T18:32:58.593Z,23.47
2023-02-24T18:36:02.821Z,23.22
2023-02-24T18:39:06.346Z,23.20
2023-02-24T18:42:09.675Z,23.27
2023-02-24T18:45:12.960Z,23.44
2023-02-24T18:48:16.130Z,23.55
2023-02-24T18:51:22.620Z,23.11
2023-02-24T18:54:25.824Z,23.52
2023-02-24T18:57:29.575Z,24.20
2023-02-24T19:00:32.781Z,24.04
2023-02-24T19:03:36.028Z,24.10
2023-02-24T19:06:39.171Z,24.50
2023-02-24T19:09:42.379Z,24.76
2023-02-24T19:12:45.819Z,24.71
2023-02-24T19:15:49.100Z,25.40
2023-02-24T19:18:53.831Z,24.88
2023-02-24T19:21:57.226Z,24.93
2023-02-24T19:25:00.442Z,25.35
2023-02-24T19:28:04.016Z,25.25
2023-02-24T19:31:15.858Z,25.18
2023-02-24T19:34:19.380Z,24.97
2023-02-24T19:37:22.762Z,24.93
2023-02-24T19:40:26.047Z,24.76
2023-02-24T19:43:29.322Z,25.43
2023-02-24T19:46:32.698Z,25.22
2023-02-24T19:49:35.913Z,25.51
2023-02-24T19:52:39.119Z,25.76
2023-02-24T19:55:42.395Z,25.21
2023-02-24T19:58:45.772Z,25.18
2023-02-24T20:01:51.653Z,25.25
2023-02-24T20:04:54.933Z,25.35
2023-02-24T20:08:01.621Z,25.18
2023-02-24T20:11:05.609Z,25.59
2023-02-24T20:14:10.492Z,25.72
2023-02-24T20:17:13.709Z,25.60
2023-02-24T20:20:17.183Z,26.06
2023-02-24T20:23:20.595Z,26.30
2023-02-24T20:26:24.061Z,26.63
2023-02-24T20:29:27.549Z,26.69
2023-02-24T20:32:32.152Z,26.82
2023-02-24T20:35:40.029Z,26.51
2023-02-24T20:38:43.261Z,26.21
2023-02-24T20:41:46.603Z,26.23
2023-02-24T20:44:49.906Z,26.33
2023-02-24T20:47:53.228Z,26.78
2023-02-24T20:50:56.455Z,26.81
2023-02-24T20:53:59.867Z,26.86
2023-02-24T20:57:02.992Z,26.47
2023-02-24T21:00:06.853Z,26.58
2023-02-24T21:03:10.112Z,27.00
2023-02-24T21:06:14.811Z,27.10
2023-02-24T21:09:18.206Z,26.91
2023-02-24T21:12:21.415Z,27.03
2023-02-24T21:15:27.057Z,26.95
2023-02-24T21:18:32.834Z,27.05
2023-02-24T21:21:36.142Z,27.21
2023-02-24T21:24:39.432Z,27.29
2023-02-24T21:27:42.718Z,27.24
2023-02-24T21:30:46.079Z,26.90
2023-02-24T21:33:53.690Z,26.45
2023-02-24T21:36:57.001Z,26.49
2023-02-24T21:40:00.401Z,26.53
2023-02-24T21:43:04.306Z,26.51
2023-02-24T21:46:12.658Z,26.76
2023-02-24T21:49:16.071Z,27.01
2023-02-24T21:52:19.313Z,26.90
2023-02-24T21:55:22.649Z,26.99
2023-02-24T21:58:25.774Z,27.03
2023-02-24T22:01:37.186Z,27.17
2023-02-24T22:04:40.687Z,27.29
2023-02-24T22:07:48.307Z,27.10
2023-02-24T22:10:59.314Z,27.11
2023-02-24T22:14:02.777Z,27.04
2023-02-24T22:17:05.933Z,27.20
2023-02-24T22:20:14.198Z,27.58
2023-02-24T22:23:17.471Z,27.29
2023-02-24T22:26:24.190Z,27.16
2023-02-24T22:29:27.622Z,27.23
2023-02-24T22:32:31.063Z,27.56
2023-02-24T22:35:37.353Z,27.40
2023-02-24T22:38:40.924Z,27.48
2023-02-24T22:41:44.469Z,27.24
2023-02-24T22:44:47.785Z,27.69
2023-02-24T22:47:50.995Z,27.88
2023-02-24T22:50:58.388Z,27.63
2023-02-24T22:54:01.742Z,27.47
2023-02-24T22:57:05.196Z,28.00
2023-02-24T23:00:09.406Z,27.21
2023-02-24T23:03:18.452Z,26.79
2023-02-24T23:06:24.285Z,26.56
2023-02-24T23:09:30.266Z,26.44
2023-02-24T23:12:33.457Z,26.45
2023-02-24T23:15:40.830Z,26.35
2023-02-24T23:18:44.261Z,26.31
2023-02-24T23:21:52.942Z,26.43
2023-02-24T23:24:56.088Z,26.59
2023-02-24T23:27:59.346Z,26.38
2023-02-24T23:31:02.614Z,26.16
2023-02-24T23:34:08.439Z,25.88
2023-02-24T23:37:11.683Z,25.62
2023-02-24T23:40:15.006Z,25.38
2023-02-24T23:43:18.637Z,25.10
2023-02-24T23:46:22.247Z,24.93
2023-02-24T23:49:26.921Z,24.84
2023-02-24T23:52:32.720Z,24.49
2023-02-24T23:55:38.293Z,24.30
2023-02-24T23:58:41.489Z,24.03
